createdAt,value
2018-10-21T00:00:10.545Z,74.76
2018-10-21T00:02:39.165Z,74.14
2018-10-21T00:05:09.448Z,74.49
2018-10-21T00:07:38.112Z,74.27
2018-10-21T00:10:08.148Z,74.21
2018-10-21T00:12:36.861Z,73.83
2018-10-21T00:15:06.267Z,73.89
2018-10-21T00:17:34.847Z,74.31
2018-10-21T00:20:03.577Z,74.62
2018-10-21T00:22:32.320Z,74.12
2018-10-21T00:25:00.952Z,74.23
2018-10-21T00:27:29.620Z,74.23
2018-10-21T00:29:58.303Z,74.48
2018-10-21T00:32:33.038Z,74.50
2018-10-21T00:35:01.713Z,74.05
2018-10-21T00:37:30.356Z,74.25
2018-10-21T00:39:58.956Z,74.45
2018-10-21T00:42:27.572Z,74.13
2018-10-21T00:44:56.244Z,74.26
2018-10-21T00:47:24.867Z,73.67
2018-10-21T00:49:53.532Z,73.11
2018-10-21T00:52:22.144Z,73.46
2018-10-21T00:54:50.820Z,73.02
2018-10-21T00:57:19.480Z,72.53
2018-10-21T00:59:48.153Z,72.88
2018-10-21T01:02:16.825Z,72.95
2018-10-21T01:04:45.461Z,72.99
2018-10-21T01:07:14.125Z,73.27
2018-10-21T01:09:42.846Z,73.15
2018-10-21T01:12:11.505Z,72.87
2018-10-21T01:14:40.197Z,73.59
2018-10-21T01:17:08.905Z,73.45
2018-10-21T01:19:37.588Z,73.35
2018-10-21T01:22:06.407Z,73.46
2018-10-21T01:24:35.023Z,74.14
2018-10-21T01:27:03.658Z,75.16
2018-10-21T01:29:32.307Z,74.94
2018-10-21T01:32:00.962Z,75.13
2018-10-21T01:34:29.609Z,75.86
2018-10-21T01:36:58.395Z,76.15
2018-10-21T01:40:36.472Z,75.81
2018-10-21T01:43:05.726Z,76.02
2018-10-21T01:45:34.550Z,75.96
2018-10-21T01:48:04.456Z,76.57
2018-10-21T01:50:33.102Z,76.21
2018-10-21T01:53:02.964Z,76.56
2018-10-21T01:55:31.589Z,76.23
2018-10-21T01:58:00.532Z,76.36
2018-10-21T02:00:29.749Z,76.44
2018-10-21T02:02:59.048Z,76.50
2018-10-21T02:05:27.958Z,76.50
2018-10-21T02:07:56.853Z,76.33
2018-10-21T02:10:25.531Z,76.36
2018-10-21T02:12:54.287Z,76.84
2018-10-21T02:15:22.973Z,76.68
2018-10-21T02:17:51.652Z,76.81
2018-10-21T02:20:21.029Z,77.14
2018-10-21T02:22:50.221Z,76.67
2018-10-21T02:25:18.944Z,76.77
2018-10-21T02:27:48.336Z,77.19
2018-10-21T02:30:21.332Z,77.55
2018-10-21T02:32:50.624Z,76.88
2018-10-21T02:35:19.839Z,77.08
2018-10-21T02:37:48.863Z,77.49
2018-10-21T02:41:44.399Z,77.49
2018-10-21T02:44:18.352Z,78.39
2018-10-21T02:46:47.715Z,78.27
2018-10-21T02:49:17.249Z,78.45
2018-10-21T02:51:51.060Z,78.68
2018-10-21T02:54:23.370Z,78.28
2018-10-21T02:56:52.072Z,78.81
2018-10-21T02:59:21.177Z,79.25
2018-10-21T03:01:49.981Z,79.78
2018-10-21T03:04:18.955Z,79.37
2018-10-21T03:06:47.843Z,80.10
2018-10-21T03:09:16.582Z,79.92
2018-10-21T03:11:45.204Z,79.56
2018-10-21T03:14:13.940Z,80.10
2018-10-21T03:16:42.598Z,80.32
2018-10-21T03:19:11.286Z,80.11
2018-10-21T03:21:39.947Z,80.67
2018-10-21T03:24:08.587Z,80.94
2018-10-21T03:26:37.229Z,80.43
2018-10-21T03:29:06.128Z,80.05
2018-10-21T03:31:34.871Z,80.14
2018-10-21T03:34:03.698Z,79.80
2018-10-21T03:36:32.351Z,80.30
2018-10-21T03:39:01.042Z,80.02
2018-10-21T03:41:29.711Z,79.99
2018-10-21T03:43:58.305Z,80.37
2018-10-21T03:46:26.921Z,80.59
2018-10-21T03:48:55.613Z,80.82
2018-10-21T03:51:24.244Z,80.56
2018-10-21T03:53:52.905Z,80.26
2018-10-21T03:56:21.572Z,80.56
2018-10-21T03:58:50.217Z,81.27
2018-10-21T04:01:18.870Z,80.60
2018-10-21T04:03:47.551Z,81.11
2018-10-21T04:06:16.169Z,81.36
2018-10-21T04:08:44.888Z,81.59
2018-10-21T04:11:13.499Z,81.60
2018-10-21T04:13:42.185Z,82.46
2018-10-21T04:16:12.041Z,81.88
2018-10-21T04:18:40.718Z,81.68
2018-10-21T04:21:09.430Z,81.24
2018-10-21T04:23:38.130Z,81.51
2018-10-21T04:26:06.782Z,81.31
2018-10-21T04:28:35.867Z,80.53
2018-10-21T04:31:04.520Z,80.55
2018-10-21T04:33:39.682Z,81.08
2018-10-21T04:36:10.085Z,81.20
2018-10-21T04:38:49.759Z,80.85
2018-10-21T04:41:18.364Z,80.49
2018-10-21T04:43:47.021Z,80.74
2018-10-21T04:46:15.770Z,80.35
2018-10-21T04:48:44.373Z,80.57
2018-10-21T04:51:12.949Z,80.84
2018-10-21T04:53:41.572Z,80.46
2018-10-21T04:56:10.218Z,80.48
2018-10-21T04:58:38.853Z,79.96
2018-10-21T05:01:07.488Z,79.81
2018-10-21T05:03:36.082Z,80.61
2018-10-21T05:06:04.899Z,80.61
2018-10-21T05:08:33.534Z,80.32
2018-10-21T05:11:02.225Z,79.88
2018-10-21T05:13:30.811Z,79.41
2018-10-21T05:15:59.475Z,79.05
2018-10-21T05:18:28.123Z,78.90
2018-10-21T05:20:56.761Z,78.01
2018-10-21T05:23:25.445Z,78.22
2018-10-21T05:25:54.093Z,79.13
2018-10-21T05:28:22.767Z,79.18
2018-10-21T05:30:51.420Z,79.39
2018-10-21T05:33:20.057Z,78.40
2018-10-21T05:35:48.760Z,79.17
2018-10-21T05:38:17.428Z,78.90
2018-10-21T05:43:08.368Z,78.51
2018-10-21T05:45:37.002Z,78.51
2018-10-21T05:48:05.944Z,78.63
2018-10-21T05:50:34.556Z,77.96
2018-10-21T05:53:03.156Z,77.58
2018-10-21T05:55:31.831Z,76.87
2018-10-21T05:58:00.648Z,77.12
2018-10-21T06:00:29.213Z,75.74
2018-10-21T06:02:57.993Z,76.91
2018-10-21T06:05:36.456Z,75.93
2018-10-21T06:08:05.498Z,76.28
2018-10-21T06:10:34.331Z,75.83
2018-10-21T06:13:02.975Z,75.88
2018-10-21T14:42:28.152Z,71.87
2018-10-21T14:44:56.821Z,71.47
2018-10-21T15:17:02.036Z,75.00
2018-10-21T15:19:30.674Z,74.79
2018-10-21T15:21:59.432Z,75.96
2018-10-21T15:24:28.070Z,75.87
2018-10-21T15:26:56.896Z,76.61
2018-10-21T15:29:25.628Z,76.55
2018-10-21T15:34:21.216Z,78.16
2018-10-21T15:36:49.903Z,77.49
2018-10-21T15:39:18.645Z,77.62
2018-10-21T15:41:47.430Z,77.32
2018-10-21T15:44:16.167Z,77.42
2018-10-21T15:46:44.883Z,77.80
2018-10-21T15:49:13.571Z,77.13
2018-10-21T15:51:43.288Z,76.18
2018-10-21T15:54:12.019Z,75.84
2018-10-21T15:56:40.787Z,76.32
2018-10-21T15:59:09.477Z,75.93
2018-10-21T16:01:38.226Z,75.24
2018-10-21T16:04:06.948Z,74.98
2018-10-21T16:10:54.896Z,75.21
2018-10-21T16:13:23.533Z,75.10
2018-10-21T16:15:52.335Z,74.03
2018-10-21T16:18:20.977Z,75.19
2018-10-21T16:20:49.619Z,73.70
2018-10-21T16:23:18.330Z,74.20
2018-10-21T16:25:47.082Z,73.73
2018-10-21T16:28:15.780Z,74.61
2018-10-21T16:30:44.359Z,73.68
2018-10-21T16:33:13.025Z,73.69
2018-10-21T16:35:41.700Z,73.97
2018-10-21T16:38:10.360Z,73.92
2018-10-21T16:40:39.010Z,74.01
2018-10-21T16:43:07.617Z,73.70
2018-10-21T16:45:36.242Z,73.41
2018-10-21T16:48:05.237Z,74.03
2018-10-21T16:50:37.737Z,73.77
2018-10-21T16:54:33.552Z,73.04
2018-10-21T16:57:04.882Z,73.56
2018-10-21T16:59:33.530Z,72.72
2018-10-21T17:02:02.211Z,73.57
2018-10-21T17:04:30.889Z,73.48
2018-10-21T17:06:59.630Z,72.68
2018-10-21T17:09:28.532Z,73.16
2018-10-21T17:11:57.108Z,74.04
2018-10-21T17:14:46.972Z,73.12
2018-10-21T17:17:15.811Z,73.82
2018-10-21T17:19:44.416Z,72.78
2018-10-21T17:22:13.156Z,73.35
2018-10-21T17:24:41.892Z,72.77
2018-10-21T17:27:10.699Z,72.39
2018-10-21T17:29:39.379Z,72.96
2018-10-21T17:32:08.003Z,72.45
2018-10-21T17:34:36.645Z,73.20
2018-10-21T17:37:05.515Z,72.94
2018-10-21T17:39:34.210Z,73.12
2018-10-21T17:42:02.948Z,72.96
2018-10-21T17:44:31.589Z,73.24
2018-10-21T17:47:00.273Z,73.19
2018-10-21T17:49:28.990Z,73.04
2018-10-21T17:51:57.803Z,73.20
2018-10-21T17:54:26.420Z,73.89
2018-10-21T17:56:58.518Z,72.29
2018-10-21T17:59:27.848Z,73.62
2018-10-21T18:01:57.347Z,73.34
2018-10-21T18:04:26.788Z,72.68
2018-10-21T18:06:55.670Z,73.87
2018-10-21T18:09:24.281Z,73.00
2018-10-21T18:11:52.959Z,73.41
2018-10-21T18:14:21.703Z,72.99
2018-10-21T18:16:50.507Z,73.44
2018-10-21T18:19:19.193Z,73.63
2018-10-21T18:21:47.830Z,73.62
2018-10-21T18:24:16.468Z,73.51
2018-10-21T18:26:45.144Z,73.41
2018-10-21T18:29:14.368Z,73.23
2018-10-21T18:31:43.168Z,73.70
2018-10-21T18:34:11.892Z,73.27
2018-10-21T18:36:40.634Z,73.27
2018-10-21T18:39:10.401Z,74.12
2018-10-21T18:41:39.174Z,73.97
2018-10-21T18:44:08.478Z,74.17
2018-10-21T18:46:37.145Z,73.80
2018-10-21T18:49:05.866Z,73.52
2018-10-21T18:51:34.618Z,73.70
2018-10-21T18:54:03.518Z,73.27
2018-10-21T18:56:32.268Z,72.87
2018-10-21T18:59:01.074Z,72.86
2018-10-21T19:01:29.776Z,73.33
2018-10-21T19:03:58.594Z,73.07
2018-10-21T19:06:27.317Z,73.11
2018-10-21T19:08:55.989Z,73.42
2018-10-21T19:11:24.621Z,72.74
2018-10-21T19:13:53.441Z,73.03
2018-10-21T19:16:22.434Z,72.97
2018-10-21T19:18:53.241Z,73.91
2018-10-21T19:21:21.962Z,72.68
2018-10-21T19:23:50.636Z,72.54
2018-10-21T19:26:19.305Z,73.01
2018-10-21T19:28:47.994Z,72.46
2018-10-21T19:31:16.763Z,72.44
2018-10-21T19:33:45.879Z,72.67
2018-10-21T19:36:14.527Z,72.53
2018-10-21T19:38:47.059Z,72.08
2018-10-21T19:41:15.753Z,72.14
2018-10-21T19:43:44.427Z,71.92
2018-10-21T19:46:13.119Z,72.05
2018-10-21T19:48:41.814Z,72.26
2018-10-21T19:51:10.531Z,72.92
2018-10-21T19:53:39.205Z,72.88
2018-10-21T19:56:07.851Z,71.94
2018-10-21T19:58:36.568Z,71.90
2018-10-21T20:01:05.559Z,71.37
2018-10-21T20:03:34.190Z,70.83
2018-10-21T20:06:02.924Z,70.99
2018-10-21T20:08:31.564Z,71.24
2018-10-21T20:11:00.202Z,71.27
2018-10-21T20:13:28.947Z,71.77
2018-10-21T20:15:57.586Z,72.33
2018-10-21T20:18:26.949Z,72.58
2018-10-21T20:20:55.625Z,72.74
2018-10-21T20:25:21.294Z,73.59
2018-10-21T20:27:49.929Z,73.16
2018-10-21T20:30:18.640Z,73.56
2018-10-21T20:32:47.338Z,73.76
2018-10-21T20:35:16.012Z,74.52
2018-10-21T20:37:44.625Z,74.16
2018-10-21T20:40:13.312Z,73.83
2018-10-21T20:42:41.961Z,74.22
2018-10-21T20:45:11.998Z,74.33
2018-10-21T20:47:40.745Z,74.34
2018-10-21T20:50:09.545Z,74.31
2018-10-21T20:52:38.391Z,74.03
2018-10-21T20:55:07.477Z,73.87
2018-10-21T20:57:36.176Z,74.54
2018-10-21T21:00:08.871Z,74.12
2018-10-21T21:02:37.538Z,73.95
2018-10-21T21:05:07.835Z,73.11
2018-10-21T21:07:36.504Z,73.79
2018-10-21T21:10:06.250Z,73.82
2018-10-21T21:12:34.969Z,73.15
2018-10-21T21:15:03.647Z,73.31
2018-10-21T21:17:32.344Z,73.39
2018-10-21T21:20:01.054Z,73.45
2018-10-21T21:22:29.708Z,73.27
2018-10-21T21:24:58.414Z,73.33
2018-10-21T21:27:27.106Z,73.95
2018-10-21T21:29:55.821Z,74.16
2018-10-21T21:32:24.669Z,73.97
2018-10-21T21:34:53.359Z,74.05
2018-10-21T21:37:22.092Z,73.97
2018-10-21T21:39:51.639Z,74.31
2018-10-21T21:42:20.514Z,73.90
2018-10-21T21:44:49.172Z,73.73
2018-10-21T21:47:17.890Z,73.61
2018-10-21T21:49:46.574Z,73.75
2018-10-21T21:52:15.281Z,73.76
2018-10-21T21:54:43.924Z,73.44
2018-10-21T21:57:12.562Z,74.30
2018-10-21T21:59:41.197Z,74.69
2018-10-21T22:02:09.861Z,74.51
2018-10-21T22:04:38.516Z,74.23
2018-10-21T22:07:07.741Z,74.18
2018-10-21T22:09:36.433Z,74.47
2018-10-21T22:12:05.176Z,73.76
2018-10-21T22:14:33.834Z,74.14
2018-10-21T22:17:02.512Z,73.86
2018-10-21T22:19:31.178Z,73.78
2018-10-21T22:21:59.881Z,73.72
2018-10-21T22:24:28.543Z,73.04
2018-10-21T22:26:57.210Z,74.19
2018-10-21T22:29:25.881Z,74.77
2018-10-21T22:32:01.322Z,74.73
2018-10-21T22:34:29.952Z,74.18
2018-10-21T22:36:58.637Z,73.93
2018-10-21T22:39:27.326Z,74.21
2018-10-21T22:41:56.048Z,73.69
2018-10-21T22:44:24.708Z,73.53
2018-10-21T22:46:53.455Z,73.48
2018-10-21T22:49:22.090Z,73.91
2018-10-21T22:51:50.761Z,74.09
2018-10-21T22:54:19.462Z,75.07
2018-10-21T22:56:48.020Z,74.97
2018-10-21T22:59:16.718Z,75.36
2018-10-21T23:01:45.396Z,75.65
2018-10-21T23:04:14.097Z,75.24
2018-10-21T23:06:42.775Z,75.13
2018-10-21T23:09:12.351Z,74.84
2018-10-21T23:11:41.442Z,75.38
2018-10-21T23:14:12.314Z,74.50
2018-10-21T23:16:41.084Z,74.85
2018-10-21T23:19:20.803Z,75.21
2018-10-21T23:21:49.486Z,74.90
2018-10-21T23:24:18.144Z,74.57
2018-10-21T23:26:46.834Z,74.64
2018-10-21T23:29:15.510Z,74.58
2018-10-21T23:31:44.145Z,74.51
2018-10-21T23:34:12.849Z,74.63
2018-10-21T23:36:41.452Z,74.25
2018-10-21T23:39:10.174Z,73.82
2018-10-21T23:41:38.814Z,73.74
2018-10-21T23:44:07.489Z,74.06
2018-10-21T23:46:36.104Z,73.28
2018-10-21T23:49:05.906Z,73.70
2018-10-21T23:51:34.547Z,74.16
2018-10-21T23:54:03.253Z,73.53
2018-10-21T23:56:31.885Z,73.78
2018-10-21T23:59:00.549Z,73.53
